Time;durP1;ratioP1;P1;durP2;ratioP2;P2;SDS_P1;SDS_P2;PMS_P1;PMS_P2;Temp;Humidity;BMP_temperature;BMP_pressure;BME280_temperature;BME280_humidity;BME280_pressure;Samples;Min_cycle;Max_cycle;Signal;HPM_P1;HPM_P2
2022/04/29 00:00:49;;;;;;;17.67;13.17;;;6.50;93.80;;;;;;4997026;28;20557;-76
2022/04/29 00:03:17;;;;;;;19.60;11.70;;;6.50;93.80;;;;;;5001422;28;20566;-76
2022/04/29 00:05:47;;;;;;;15.53;12.33;;;6.50;93.90;;;;;;4995342;28;20467;-77
2022/04/29 00:08:16;;;;;;;14.67;12.27;;;6.50;94.00;;;;;;4991160;28;20563;-76
2022/04/29 00:10:45;;;;;;;17.37;13.33;;;6.50;94.00;;;;;;4993348;28;20886;-76
2022/04/29 00:13:15;;;;;;;16.50;12.83;;;6.50;94.10;;;;;;4992076;28;20455;-76
2022/04/29 00:15:44;;;;;;;21.50;14.30;;;6.50;94.10;;;;;;4992830;28;20493;-76
2022/04/29 00:18:12;;;;;;;17.30;13.70;;;6.50;94.20;;;;;;5012659;28;20504;-76
2022/04/29 00:20:40;;;;;;;16.50;14.77;;;6.50;94.20;;;;;;4998610;28;20463;-76
2022/04/29 00:23:10;;;;;;;20.47;13.97;;;6.50;94.30;;;;;;4991033;28;20508;-76
2022/04/29 00:25:40;;;;;;;18.63;15.50;;;6.50;94.30;;;;;;4991332;28;20491;-76
2022/04/29 00:28:09;;;;;;;18.70;11.70;;;6.50;94.40;;;;;;4999793;28;20583;-76
2022/04/29 00:30:38;;;;;;;18.00;12.20;;;6.50;94.50;;;;;;5010546;28;20811;-76
2022/04/29 00:33:06;;;;;;;19.53;11.53;;;6.50;94.50;;;;;;5010386;28;20495;-77
2022/04/29 00:35:35;;;;;;;19.50;15.33;;;6.50;94.60;;;;;;5001814;28;20973;-77
2022/04/29 00:38:03;;;;;;;19.03;14.90;;;6.50;94.60;;;;;;5001143;28;20554;-76
2022/04/29 00:40:32;;;;;;;18.07;12.80;;;6.50;94.70;;;;;;5009784;28;20461;-77
2022/04/29 00:43:01;;;;;;;17.87;14.43;;;6.50;94.70;;;;;;5011030;28;20478;-76
2022/04/29 00:45:30;;;;;;;18.70;13.30;;;6.50;94.80;;;;;;5010736;28;20539;-76
2022/04/29 00:47:58;;;;;;;14.63;13.00;;;6.40;94.80;;;;;;5010243;28;20546;-77
2022/04/29 00:50:28;;;;;;;19.80;14.53;;;6.40;94.90;;;;;;5011055;28;20896;-77
2022/04/29 00:52:59;;;;;;;19.47;17.40;;;6.40;95.00;;;;;;5012013;28;20448;-77
2022/04/29 00:55:28;;;;;;;19.97;12.50;;;6.40;95.10;;;;;;5010893;28;20510;-77
2022/04/29 00:58:03;;;;;;;17.20;14.57;;;6.40;95.10;;;;;;5010944;28;20460;-77
2022/04/29 01:00:32;;;;;;;18.70;12.70;;;6.40;95.20;;;;;;5011728;28;20811;-77
2022/04/29 01:03:01;;;;;;;18.70;12.83;;;6.40;95.30;;;;;;5011659;28;20482;-77
2022/04/29 01:05:31;;;;;;;19.37;13.23;;;6.40;95.30;;;;;;5010633;28;20448;-77
2022/04/29 01:08:01;;;;;;;19.07;14.27;;;6.40;95.40;;;;;;4994275;28;20453;-78
2022/04/29 01:10:29;;;;;;;16.53;12.70;;;6.40;95.50;;;;;;5008933;28;20484;-77
2022/04/29 01:12:59;;;;;;;17.53;13.40;;;6.40;95.50;;;;;;5010579;28;20491;-77
2022/04/29 01:15:29;;;;;;;17.97;14.57;;;6.40;95.60;;;;;;5011946;28;20448;-77
2022/04/29 01:18:00;;;;;;;21.27;14.27;;;6.30;95.60;;;;;;5012182;28;20427;-77
2022/04/29 01:20:30;;;;;;;16.50;14.13;;;6.30;95.60;;;;;;5010408;28;20475;-78
2022/04/29 01:23:04;;;;;;;23.03;16.37;;;6.30;95.80;;;;;;5011462;28;20450;-77
2022/04/29 01:25:33;;;;;;;17.10;14.40;;;6.30;95.80;;;;;;5010875;28;20856;-77
2022/04/29 01:28:01;;;;;;;20.37;16.00;;;6.20;95.90;;;;;;5010255;28;20457;-77
2022/04/29 01:30:31;;;;;;;18.53;16.03;;;6.20;95.90;;;;;;5010808;28;20481;-77
2022/04/29 01:33:01;;;;;;;19.00;15.60;;;6.20;96.00;;;;;;5010919;28;20899;-77
2022/04/29 01:35:30;;;;;;;20.17;17.80;;;6.20;96.10;;;;;;5005048;28;20956;-77
2022/04/29 01:38:02;;;;;;;17.70;15.90;;;6.10;96.20;;;;;;4992007;28;20459;-77
2022/04/29 01:40:30;;;;;;;18.00;15.73;;;6.10;96.20;;;;;;4992947;28;20500;-77
2022/04/29 01:43:04;;;;;;;18.60;14.43;;;6.10;96.30;;;;;;5010231;28;20951;-77
2022/04/29 01:45:33;;;;;;;17.73;15.20;;;6.10;96.60;;;;;;5003822;28;20494;-77
2022/04/29 01:48:11;;;;;;;17.33;12.80;;;6.10;96.40;;;;;;4991931;28;20477;-77
2022/04/29 01:50:51;;;;;;;18.90;14.90;;;6.10;96.40;;;;;;4992575;28;20451;-77
2022/04/29 01:53:21;;;;;;;18.07;13.40;;;6.10;96.50;;;;;;4995630;28;20939;-77
2022/04/29 01:55:49;;;;;;;16.97;13.13;;;6.10;96.50;;;;;;4995195;28;20451;-77
2022/04/29 01:58:18;;;;;;;19.23;14.70;;;6.10;96.50;;;;;;4994233;28;20539;-77
2022/04/29 02:00:46;;;;;;;19.13;15.07;;;6.10;96.50;;;;;;5000673;28;20466;-77
2022/04/29 02:03:14;;;;;;;16.47;13.87;;;6.10;96.50;;;;;;4995362;28;20452;-77
2022/04/29 02:05:43;;;;;;;20.73;12.30;;;6.10;96.50;;;;;;4994052;28;20459;-77
2022/04/29 02:08:12;;;;;;;17.97;13.20;;;6.10;96.50;;;;;;5007442;28;20510;-77
2022/04/29 02:10:44;;;;;;;17.63;13.63;;;6.10;96.50;;;;;;5013831;28;20452;-77
2022/04/29 02:13:16;;;;;;;18.80;13.50;;;6.10;96.50;;;;;;5013746;28;20474;-77
2022/04/29 02:16:02;;;;;;;18.10;13.90;;;6.00;96.50;;;;;;5014440;28;20437;-77
2022/04/29 02:18:31;;;;;;;16.97;13.10;;;6.00;96.50;;;;;;5013252;28;20473;-77
2022/04/29 02:21:00;;;;;;;16.93;12.60;;;6.00;96.50;;;;;;5012119;28;20455;-77
2022/04/29 02:23:28;;;;;;;21.90;14.67;;;6.00;96.50;;;;;;4991051;28;20540;-77
2022/04/29 02:25:58;;;;;;;20.00;14.10;;;5.90;96.40;;;;;;4995645;28;21002;-77
2022/04/29 02:28:27;;;;;;;17.57;14.73;;;6.00;96.50;;;;;;5013550;28;20547;-78
2022/04/29 02:30:56;;;;;;;23.93;12.63;;;6.00;96.50;;;;;;5013239;28;20465;-78
2022/04/29 02:33:25;;;;;;;18.63;13.40;;;6.00;96.50;;;;;;5014031;28;20476;-78
2022/04/29 02:35:54;;;;;;;15.47;12.20;;;5.90;96.50;;;;;;5013517;28;20536;-77
2022/04/29 02:38:22;;;;;;;19.90;15.03;;;5.90;96.50;;;;;;5012764;28;20580;-77
2022/04/29 02:40:51;;;;;;;20.10;15.73;;;5.90;96.50;;;;;;5012538;28;20448;-77
2022/04/29 02:43:21;;;;;;;16.10;14.03;;;5.90;96.60;;;;;;5013215;28;20485;-77
2022/04/29 02:45:50;;;;;;;16.53;14.83;;;5.90;96.70;;;;;;5009302;28;20480;-77
2022/04/29 02:48:19;;;;;;;19.20;14.87;;;5.90;96.80;;;;;;4992771;28;20470;-77
2022/04/29 02:50:47;;;;;;;26.47;17.97;;;5.90;96.80;;;;;;5004657;28;20465;-77
2022/04/29 02:53:17;;;;;;;20.73;15.80;;;5.90;96.80;;;;;;5013249;28;20450;-77
2022/04/29 02:55:45;;;;;;;17.20;14.40;;;5.90;96.80;;;;;;5012458;28;20507;-77
2022/04/29 02:58:30;;;;;;;17.80;13.57;;;5.90;96.80;;;;;;5012685;28;20471;-77
2022/04/29 03:00:58;;;;;;;16.10;13.07;;;5.80;96.80;;;;;;5012986;28;20827;-77
2022/04/29 03:03:28;;;;;;;17.63;14.13;;;5.90;96.80;;;;;;5011269;28;20455;-77
2022/04/29 03:05:56;;;;;;;16.63;13.40;;;5.90;96.80;;;;;;5006321;28;20484;-77
2022/04/29 03:08:24;;;;;;;17.80;12.43;;;5.80;96.70;;;;;;4993514;28;20486;-77
2022/04/29 03:10:52;;;;;;;18.07;13.30;;;5.80;96.70;;;;;;5005416;28;20459;-77
2022/04/29 03:13:22;;;;;;;22.10;13.70;;;5.80;96.70;;;;;;5012069;28;20451;-77
2022/04/29 03:15:56;;;;;;;17.40;13.60;;;5.80;96.70;;;;;;5013129;28;20454;-77
2022/04/29 03:18:25;;;;;;;17.80;14.43;;;5.80;96.70;;;;;;5012453;28;20481;-77
2022/04/29 03:20:56;;;;;;;18.00;14.90;;;5.70;96.70;;;;;;5011951;28;20454;-77
2022/04/29 03:23:26;;;;;;;22.43;13.37;;;5.70;96.70;;;;;;5012705;28;20448;-77
2022/04/29 03:25:56;;;;;;;21.63;14.10;;;5.70;96.70;;;;;;5005643;28;20999;-77
2022/04/29 03:28:26;;;;;;;22.83;17.60;;;5.70;96.80;;;;;;4991892;28;20526;-77
2022/04/29 03:30:58;;;;;;;17.00;13.27;;;5.70;96.80;;;;;;4992599;28;20596;-77
2022/04/29 03:33:34;;;;;;;20.13;14.17;;;5.70;96.80;;;;;;4992937;28;20549;-77
2022/04/29 03:36:03;;;;;;;18.07;13.83;;;5.70;96.90;;;;;;5011322;28;20997;-77
2022/04/29 03:38:37;;;;;;;18.50;15.20;;;5.70;96.90;;;;;;5011796;28;20477;-77
2022/04/29 03:41:06;;;;;;;17.60;14.87;;;5.60;96.90;;;;;;5013068;28;20532;-77
2022/04/29 03:43:36;;;;;;;19.37;17.07;;;5.70;96.90;;;;;;5011329;28;20456;-77
2022/04/29 03:46:08;;;;;;;18.27;16.37;;;5.70;96.90;;;;;;5011530;28;20476;-77
2022/04/29 03:51:47;;;;;;;19.90;15.10;;;5.70;97.00;;;;;;5003194;28;20456;-77
2022/04/29 03:54:15;;;;;;;21.50;15.13;;;5.70;97.00;;;;;;5004874;28;20562;-77
2022/04/29 03:56:51;;;;;;;20.60;16.97;;;5.70;97.30;;;;;;5012259;28;20452;-77
2022/04/29 03:59:19;;;;;;;20.07;18.07;;;5.70;97.00;;;;;;5010889;28;20511;-77
2022/04/29 04:01:51;;;;;;;18.43;15.03;;;5.70;97.10;;;;;;5011251;28;20477;-77
2022/04/29 04:04:20;;;;;;;22.20;15.40;;;5.70;97.10;;;;;;5005912;28;20546;-77
2022/04/29 04:06:51;;;;;;;23.60;17.00;;;5.70;97.10;;;;;;4991519;28;20448;-77
2022/04/29 04:09:31;;;;;;;20.63;16.83;;;5.70;97.10;;;;;;4991495;28;20508;-77
2022/04/29 04:12:06;;;;;;;19.90;17.83;;;5.60;97.10;;;;;;4992284;28;20456;-77
2022/04/29 04:15:01;;;;;;;22.70;17.70;;;5.70;97.20;;;;;;4990295;28;20442;-77
2022/04/29 04:17:35;;;;;;;23.93;21.30;;;5.60;97.20;;;;;;4992031;28;20435;-77
2022/04/29 04:20:04;;;;;;;34.43;31.67;;;5.60;97.30;;;;;;4993025;28;20990;-77
2022/04/29 04:22:44;;;;;;;27.63;24.70;;;5.70;97.40;;;;;;4992024;28;20480;-77
2022/04/29 04:25:15;;;;;;;24.23;20.70;;;5.70;97.50;;;;;;4991107;28;20479;-77
2022/04/29 04:27:44;;;;;;;27.00;24.47;;;5.70;97.50;;;;;;4992117;28;20457;-77
2022/04/29 04:30:13;;;;;;;24.50;22.10;;;5.60;97.60;;;;;;4991501;28;20827;-77
2022/04/29 04:32:43;;;;;;;27.40;24.80;;;5.70;97.60;;;;;;4990813;28;20455;-77
2022/04/29 04:35:12;;;;;;;26.87;24.17;;;5.70;97.70;;;;;;4991711;28;20444;-77
2022/04/29 04:37:41;;;;;;;31.37;28.70;;;5.70;97.70;;;;;;5006772;28;20994;-77
2022/04/29 04:40:12;;;;;;;22.93;20.70;;;5.70;97.70;;;;;;5010387;28;21053;-77
2022/04/29 04:42:47;;;;;;;27.67;25.17;;;5.70;97.80;;;;;;4997608;28;20552;-77
2022/04/29 04:45:27;;;;;;;29.37;26.67;;;5.70;97.80;;;;;;4994139;28;20469;-78
2022/04/29 04:48:15;;;;;;;39.13;35.13;;;5.80;97.80;;;;;;5011673;28;20539;-77
2022/04/29 04:51:03;;;;;;;37.10;33.73;;;5.80;97.90;;;;;;5011189;28;20455;-76
2022/04/29 04:53:35;;;;;;;55.77;52.33;;;5.80;97.90;;;;;;4991386;28;20461;-76
2022/04/29 04:56:04;;;;;;;46.63;43.43;;;5.80;98.00;;;;;;4991204;28;20450;-76
2022/04/29 04:58:34;;;;;;;69.50;65.70;;;5.80;98.10;;;;;;5008482;28;20481;-76
2022/04/29 05:01:03;;;;;;;67.07;63.37;;;5.80;98.20;;;;;;5010850;28;20457;-76
2022/04/29 05:03:51;;;;;;;54.00;50.70;;;5.80;98.20;;;;;;5009352;28;20464;-76
2022/04/29 05:06:38;;;;;;;57.53;54.03;;;5.90;98.40;;;;;;4990322;28;20821;-76
2022/04/29 05:09:07;;;;;;;71.17;67.03;;;5.90;98.40;;;;;;5010942;28;20468;-76
2022/04/29 05:11:38;;;;;;;70.70;66.73;;;5.90;98.50;;;;;;5009885;28;20473;-76
2022/04/29 05:14:50;;;;;;;60.77;56.97;;;6.00;98.60;;;;;;5011143;28;20451;-76
2022/04/29 05:17:18;;;;;;;77.20;72.90;;;6.00;98.60;;;;;;5009525;28;20486;-76
2022/04/29 05:20:08;;;;;;;71.40;67.33;;;6.00;98.70;;;;;;5005211;28;20557;-76
2022/04/29 05:22:39;;;;;;;73.27;69.37;;;6.10;98.80;;;;;;5009822;28;20462;-77
2022/04/29 05:25:11;;;;;;;79.63;75.37;;;6.10;98.90;;;;;;5010129;28;20470;-76
2022/04/29 05:28:02;;;;;;;60.83;57.33;;;6.20;99.10;;;;;;5010672;28;20446;-76
2022/04/29 05:30:40;;;;;;;40.13;37.40;;;6.20;99.10;;;;;;4999157;28;20440;-75
2022/04/29 05:33:27;;;;;;;22.70;20.13;;;6.30;99.20;;;;;;4992249;28;20462;-76
2022/04/29 05:36:16;;;;;;;47.50;44.53;;;6.40;99.40;;;;;;4994718;28;20496;-76
2022/04/29 05:42:18;;;;;;;49.43;46.27;;;6.60;99.60;;;;;;4993994;28;20458;-76
2022/04/29 05:44:47;;;;;;;41.07;38.10;;;6.60;99.60;;;;;;4987159;28;20499;-76
2022/04/29 05:47:17;;;;;;;26.67;24.33;;;6.70;99.70;;;;;;4972297;28;20467;-76
2022/04/29 05:49:48;;;;;;;20.93;18.97;;;6.80;99.90;;;;;;4989115;28;20471;-77
2022/04/29 05:52:21;;;;;;;23.10;20.10;;;6.90;99.90;;;;;;4997718;28;20456;-76
2022/04/29 05:54:50;;;;;;;21.60;19.33;;;7.00;99.90;;;;;;4998014;28;20884;-76
2022/04/29 05:57:24;;;;;;;19.93;17.83;;;7.00;99.90;;;;;;5010486;28;20446;-76
2022/04/29 05:59:53;;;;;;;18.00;15.97;;;7.10;99.90;;;;;;5005007;28;20476;-76
2022/04/29 06:02:41;;;;;;;21.37;16.33;;;7.20;99.90;;;;;;4994568;28;20451;-76
2022/04/29 06:05:12;;;;;;;17.23;15.17;;;7.30;99.90;;;;;;4993748;28;20548;-76
2022/04/29 06:07:45;;;;;;;20.63;16.67;;;7.40;99.90;;;;;;4984765;28;20461;-76
2022/04/29 06:10:21;;;;;;;17.83;15.40;;;7.50;99.90;;;;;;4988627;28;20529;-76
2022/04/29 06:12:50;;;;;;;14.27;12.77;;;7.60;99.90;;;;;;4993945;28;20523;-76
2022/04/29 06:15:25;;;;;;;17.63;14.60;;;7.80;99.90;;;;;;4989749;28;20437;-76
2022/04/29 06:18:32;;;;;;;14.80;12.60;;;7.90;99.90;;;;;;4990987;28;20468;-76
2022/04/29 06:21:29;;;;;;;18.83;12.50;;;8.20;99.90;;;;;;4994936;28;20444;-76
2022/04/29 06:24:15;;;;;;;17.30;13.13;;;8.40;99.90;;;;;;4989958;28;20464;-76
2022/04/29 06:26:43;;;;;;;16.10;11.83;;;8.70;99.90;;;;;;5009486;28;20467;-77
2022/04/29 06:29:12;;;;;;;15.10;9.00;;;9.00;99.90;;;;;;5009758;28;20472;-77
2022/04/29 06:31:42;;;;;;;17.20;9.83;;;9.20;99.90;;;;;;5008838;28;21053;-77
2022/04/29 06:34:39;;;;;;;14.20;9.30;;;9.40;99.90;;;;;;4983651;28;20856;-77
2022/04/29 06:37:08;;;;;;;12.90;7.60;;;9.60;99.90;;;;;;5010413;28;20534;-77
2022/04/29 06:39:40;;;;;;;12.63;5.97;;;9.90;99.90;;;;;;5012846;28;20475;-77
2022/04/29 06:42:45;;;;;;;13.90;6.13;;;9.90;99.90;;;;;;5008714;28;20464;-76
2022/04/29 06:45:32;;;;;;;11.03;4.70;;;10.00;99.90;;;;;;5014677;28;20477;-76
2022/04/29 06:48:19;;;;;;;14.20;7.40;;;10.10;99.70;;;;;;5007715;28;20479;-76
2022/04/29 06:51:05;;;;;;;10.87;6.20;;;10.20;99.50;;;;;;4994470;28;20424;-76
2022/04/29 06:53:49;;;;;;;12.30;6.13;;;10.20;99.10;;;;;;4992909;28;20449;-76
2022/04/29 06:56:25;;;;;;;12.37;6.27;;;10.40;99.00;;;;;;5008803;28;21026;-76
2022/04/29 06:58:53;;;;;;;10.90;6.07;;;10.60;98.90;;;;;;4992804;28;20488;-76
2022/04/29 07:01:26;;;;;;;13.27;6.80;;;10.80;98.60;;;;;;4994016;28;20441;-76
2022/04/29 07:03:54;;;;;;;10.70;6.03;;;11.00;98.40;;;;;;4993458;28;20464;-76
2022/04/29 07:06:23;;;;;;;11.97;6.87;;;11.20;98.30;;;;;;4992482;28;20468;-76
2022/04/29 07:08:52;;;;;;;13.23;6.80;;;11.40;98.30;;;;;;4993091;28;20500;-76
2022/04/29 07:11:41;;;;;;;12.93;6.60;;;11.60;98.20;;;;;;4993782;28;20944;-76
2022/04/29 07:14:18;;;;;;;14.70;7.60;;;11.80;98.30;;;;;;4993289;28;20539;-76
2022/04/29 07:17:08;;;;;;;12.73;6.77;;;12.10;98.00;;;;;;4996414;28;20954;-78
2022/04/29 07:19:43;;;;;;;13.03;7.20;;;12.30;97.70;;;;;;5005070;28;20499;-78
2022/04/29 07:22:30;;;;;;;12.10;6.70;;;12.50;97.60;;;;;;5016465;28;20511;-78
2022/04/29 07:24:59;;;;;;;12.43;5.40;;;12.60;97.20;;;;;;5003149;28;20954;-78
2022/04/29 07:27:29;;;;;;;11.20;5.20;;;12.70;97.10;;;;;;4995965;28;20994;-78
2022/04/29 07:29:59;;;;;;;8.67;4.40;;;12.90;96.90;;;;;;4994057;28;20473;-77
2022/04/29 07:32:36;;;;;;;10.30;4.70;;;13.00;96.60;;;;;;4996076;28;20512;-78
2022/04/29 07:44:03;;;;;;;11.30;6.00;;;13.20;95.50;;;;;;5009743;28;20449;-77
2022/04/29 07:46:36;;;;;;;9.10;5.20;;;13.20;95.50;;;;;;4993148;28;20473;-77
2022/04/29 07:49:23;;;;;;;11.07;4.97;;;13.20;95.40;;;;;;4975448;28;20993;-77
2022/04/29 07:51:53;;;;;;;10.30;5.40;;;13.10;95.10;;;;;;4996667;28;20464;-77
2022/04/29 07:54:23;;;;;;;12.53;5.70;;;13.10;94.90;;;;;;5014348;28;20456;-77
2022/04/29 07:56:52;;;;;;;11.77;5.93;;;13.00;94.80;;;;;;5013716;28;20463;-77
2022/04/29 07:59:22;;;;;;;12.27;6.10;;;12.80;94.50;;;;;;4994049;28;20821;-77
2022/04/29 08:01:59;;;;;;;13.37;6.93;;;12.70;94.50;;;;;;4999485;28;20474;-77
2022/04/29 08:04:28;;;;;;;12.17;6.93;;;12.60;94.60;;;;;;5012743;28;20451;-77
2022/04/29 08:06:56;;;;;;;11.30;6.30;;;12.50;94.50;;;;;;5003296;28;20472;-77
2022/04/29 08:09:34;;;;;;;11.00;6.20;;;12.50;94.50;;;;;;4992251;28;20473;-77
2022/04/29 08:12:10;;;;;;;10.17;5.10;;;12.60;94.70;;;;;;5009808;28;20804;-77
2022/04/29 08:14:40;;;;;;;11.90;6.07;;;12.60;94.60;;;;;;4994500;28;20444;-77
2022/04/29 08:17:37;;;;;;;8.90;4.70;;;12.70;94.30;;;;;;5009738;28;20451;-77
2022/04/29 08:20:07;;;;;;;9.97;5.30;;;12.80;94.40;;;;;;5006104;28;20833;-77
2022/04/29 08:22:44;;;;;;;10.10;4.80;;;13.00;94.30;;;;;;4993081;28;20495;-77
2022/04/29 08:25:15;;;;;;;9.80;4.87;;;13.20;94.30;;;;;;4992579;28;20460;-77
2022/04/29 08:27:44;;;;;;;10.90;5.87;;;13.30;94.20;;;;;;4993847;28;21002;-77
2022/04/29 08:30:14;;;;;;;10.73;5.40;;;13.40;94.20;;;;;;4993492;28;20538;-77
2022/04/29 08:32:45;;;;;;;12.00;7.27;;;13.60;94.10;;;;;;4994565;28;20880;-78
2022/04/29 08:35:32;;;;;;;10.97;5.90;;;13.70;94.00;;;;;;4994878;28;20457;-78
2022/04/29 08:38:00;;;;;;;9.33;5.07;;;13.70;94.10;;;;;;4994021;28;20460;-78
2022/04/29 08:40:44;;;;;;;10.37;4.70;;;13.70;93.50;;;;;;4995160;28;20526;-78
2022/04/29 08:43:15;;;;;;;13.00;5.03;;;13.60;93.20;;;;;;4994117;28;20491;-78
2022/04/29 08:45:47;;;;;;;9.17;4.90;;;13.50;92.90;;;;;;4994439;28;20528;-78
2022/04/29 08:48:19;;;;;;;8.50;4.60;;;13.40;92.80;;;;;;4994891;28;20575;-78
2022/04/29 08:50:48;;;;;;;9.73;4.73;;;13.40;92.70;;;;;;5011371;28;20508;-77
2022/04/29 08:53:17;;;;;;;10.77;4.43;;;13.40;92.80;;;;;;4973715;28;20446;-78
2022/04/29 08:58:40;;;;;;;13.40;4.50;;;13.50;92.70;;;;;;5015677;28;20555;-79
2022/04/29 09:01:13;;;;;;;8.30;4.63;;;13.60;92.60;;;;;;5014740;28;20451;-78
2022/04/29 09:03:43;;;;;;;9.03;5.00;;;13.60;92.30;;;;;;5014969;28;20432;-78
2022/04/29 09:06:12;;;;;;;11.57;4.77;;;13.70;92.50;;;;;;4999823;28;20463;-78
2022/04/29 09:08:48;;;;;;;11.50;4.93;;;13.80;92.50;;;;;;4995693;28;20480;-78
2022/04/29 09:11:23;;;;;;;10.37;4.57;;;14.00;92.50;;;;;;4994322;28;20487;-78
2022/04/29 09:13:51;;;;;;;13.47;5.67;;;14.10;92.30;;;;;;4994742;28;20440;-78
2022/04/29 09:16:24;;;;;;;8.53;4.80;;;14.30;92.30;;;;;;4994774;28;20441;-78
2022/04/29 09:18:54;;;;;;;11.63;4.93;;;14.30;92.10;;;;;;4993695;28;20897;-78
2022/04/29 09:21:25;;;;;;;11.30;4.90;;;14.30;91.90;;;;;;5010929;28;20927;-79
2022/04/29 09:23:56;;;;;;;10.30;5.10;;;14.40;91.70;;;;;;5009306;28;20500;-79
2022/04/29 09:26:40;;;;;;;8.70;4.40;;;14.40;91.70;;;;;;4997732;28;20889;-79
2022/04/29 09:29:40;;;;;;;8.80;4.27;;;14.40;91.80;;;;;;4994969;28;20472;-79
2022/04/29 09:32:15;;;;;;;8.73;4.33;;;14.50;91.60;;;;;;4997167;28;20400;-79
2022/04/29 09:34:59;;;;;;;9.30;3.87;;;14.50;91.50;;;;;;4994616;28;20448;-78
2022/04/29 09:37:28;;;;;;;8.67;4.13;;;14.50;91.10;;;;;;4993790;28;20546;-78
2022/04/29 09:40:03;;;;;;;9.00;4.53;;;14.50;91.00;;;;;;5000344;28;20536;-78
2022/04/29 09:42:37;;;;;;;7.53;3.90;;;14.50;90.90;;;;;;5013195;28;20953;-78
2022/04/29 09:45:13;;;;;;;8.87;4.10;;;14.50;90.90;;;;;;5013732;28;20443;-78
2022/04/29 09:47:44;;;;;;;12.73;4.50;;;14.50;90.90;;;;;;5012920;28;20517;-78
2022/04/29 09:50:12;;;;;;;8.60;4.57;;;14.60;90.80;;;;;;5013621;28;20471;-78
2022/04/29 09:52:43;;;;;;;8.57;4.20;;;14.60;90.70;;;;;;5008606;28;20427;-78
2022/04/29 09:55:13;;;;;;;10.63;5.13;;;14.70;90.30;;;;;;4994756;28;20427;-78
2022/04/29 09:57:48;;;;;;;9.37;5.07;;;14.70;90.30;;;;;;5002379;28;20465;-78
2022/04/29 10:00:17;;;;;;;9.10;4.23;;;14.70;90.30;;;;;;5013391;28;20509;-79
2022/04/29 10:02:49;;;;;;;8.17;4.23;;;14.70;90.30;;;;;;5016040;28;20515;-80
2022/04/29 10:05:19;;;;;;;7.50;4.80;;;14.80;90.20;;;;;;5000872;28;20439;-80
2022/04/29 10:07:56;;;;;;;8.80;4.20;;;14.80;90.10;;;;;;4997379;28;20522;-80
2022/04/29 10:10:27;;;;;;;8.30;4.13;;;14.90;90.10;;;;;;4997016;28;20427;-80
2022/04/29 10:12:57;;;;;;;11.10;5.13;;;15.00;90.10;;;;;;4999046;28;20449;-79
2022/04/29 10:15:47;;;;;;;8.20;4.77;;;15.00;89.60;;;;;;5002122;28;20423;-80
2022/04/29 10:21:47;;;;;;;11.27;4.53;;;15.20;89.30;;;;;;5008156;28;20422;-79
2022/04/29 10:24:16;;;;;;;10.07;4.67;;;15.20;89.60;;;;;;5008805;28;20964;-78
2022/04/29 10:26:45;;;;;;;10.63;5.10;;;15.30;89.20;;;;;;5017517;28;20519;-79
2022/04/29 10:29:13;;;;;;;8.27;4.60;;;15.30;89.20;;;;;;5016264;28;20466;-78
2022/04/29 10:31:42;;;;;;;9.90;4.60;;;15.40;88.80;;;;;;4999048;28;20433;-80
2022/04/29 10:34:29;;;;;;;9.80;4.70;;;15.40;88.90;;;;;;4999691;28;21003;-79
2022/04/29 10:36:58;;;;;;;7.30;4.60;;;15.50;88.70;;;;;;4993786;28;20442;-80
2022/04/29 10:39:27;;;;;;;9.80;5.20;;;15.40;88.10;;;;;;4979067;28;20492;-80
2022/04/29 10:42:03;;;;;;;10.17;5.77;;;15.40;88.30;;;;;;4977228;28;20428;-76
2022/04/29 10:44:32;;;;;;;8.47;4.83;;;15.40;88.50;;;;;;4976749;28;20416;-79
2022/04/29 10:47:38;;;;;;;11.00;5.17;;;15.40;88.40;;;;;;4977806;28;20478;-78
2022/04/29 10:50:38;;;;;;;12.03;4.93;;;15.50;87.60;;;;;;4968897;28;21033;-80
2022/04/29 10:53:36;;;;;;;8.60;5.27;;;15.60;87.90;;;;;;5020913;28;20397;-80
2022/04/29 10:56:46;;;;;;;9.03;4.20;;;15.70;88.10;;;;;;5019043;28;20422;-80
2022/04/29 10:59:21;;;;;;;7.57;4.60;;;15.70;87.60;;;;;;4943318;29;20467;-81
2022/04/29 11:02:05;;;;;;;10.00;5.20;;;15.70;87.60;;;;;;4943000;29;20442;-80
2022/04/29 11:04:45;;;;;;;12.03;4.80;;;15.80;87.20;;;;;;4989850;28;20429;-80
2022/04/29 11:07:35;;;;;;;9.03;4.73;;;15.80;87.20;;;;;;4999228;28;20425;-80
2022/04/29 11:10:09;;;;;;;8.53;4.70;;;15.80;86.40;;;;;;5013679;28;20479;-80
2022/04/29 11:12:40;;;;;;;9.37;5.13;;;15.80;87.00;;;;;;5013953;28;20427;-81
2022/04/29 11:15:42;;;;;;;9.93;5.23;;;15.80;87.20;;;;;;4999151;28;20483;-80
2022/04/29 11:18:30;;;;;;;7.87;5.10;;;15.80;86.70;;;;;;4998171;28;20467;-79
2022/04/29 11:24:40;;;;;;;9.83;5.27;;;15.80;86.60;;;;;;5019222;28;21010;-80
2022/04/29 11:26:45;;;;;;;11.53;5.83;;;15.70;85.60;;;;;;5018151;28;20423;-81
2022/04/29 11:29:14;;;;;;;8.80;5.57;;;15.60;85.70;;;;;;5020967;28;20472;-80
2022/04/29 11:32:09;;;;;;;10.33;6.10;;;15.60;85.70;;;;;;5037329;28;20460;-81
2022/04/29 11:34:52;;;;;;;9.30;5.40;;;15.60;85.50;;;;;;5017877;28;20442;-81
2022/04/29 11:37:23;;;;;;;8.33;5.20;;;15.60;85.60;;;;;;5017491;28;20428;-80
2022/04/29 11:39:55;;;;;;;10.47;5.70;;;15.60;85.50;;;;;;5015786;28;20512;-80
2022/04/29 11:42:24;;;;;;;9.97;5.20;;;15.70;85.50;;;;;;5009119;28;20821;-79
2022/04/29 11:44:52;;;;;;;9.10;5.07;;;15.80;85.70;;;;;;4998538;28;21001;-81
2022/04/29 11:47:24;;;;;;;11.00;5.00;;;15.80;85.60;;;;;;5017870;28;20927;-80
2022/04/29 11:49:53;;;;;;;8.47;5.10;;;15.80;85.70;;;;;;5017391;28;20851;-80
2022/04/29 11:52:22;;;;;;;8.43;4.83;;;15.90;85.50;;;;;;5020674;28;20492;-81
2022/04/29 11:54:57;;;;;;;8.60;5.30;;;15.80;85.20;;;;;;5018471;28;20445;-81
2022/04/29 11:57:27;;;;;;;10.23;5.50;;;15.80;84.80;;;;;;5017042;28;20452;-81
2022/04/29 11:59:56;;;;;;;10.50;5.27;;;15.70;84.70;;;;;;5018312;28;21034;-80
2022/04/29 12:02:28;;;;;;;10.70;6.40;;;15.60;84.60;;;;;;5014539;28;20523;-75
2022/04/29 12:04:58;;;;;;;9.43;4.97;;;15.70;85.40;;;;;;4998793;28;20509;-76
2022/04/29 12:07:29;;;;;;;9.93;5.47;;;15.60;84.80;;;;;;5001605;28;20420;-78
2022/04/29 12:10:00;;;;;;;8.93;5.27;;;15.70;85.00;;;;;;4994720;28;20478;-82
2022/04/29 12:12:31;;;;;;;13.53;5.97;;;15.70;85.00;;;;;;4991593;28;20943;-74
2022/04/29 12:15:00;;;;;;;8.10;4.50;;;15.80;85.00;;;;;;4992302;28;20855;-80
2022/04/29 12:17:33;;;;;;;9.07;5.43;;;15.80;84.90;;;;;;4996055;28;20471;-77
2022/04/29 12:20:02;;;;;;;8.03;4.70;;;15.90;85.10;;;;;;5001381;28;20447;-80
2022/04/29 12:22:32;;;;;;;12.07;4.83;;;15.90;85.00;;;;;;5016457;28;20436;-80
2022/04/29 12:25:20;;;;;;;13.23;5.70;;;15.80;84.50;;;;;;5015130;28;20434;-80
2022/04/29 12:28:10;;;;;;;8.97;4.73;;;15.80;84.60;;;;;;5013426;28;20430;-78
2022/04/29 12:36:13;;;;;;;11.13;5.60;;;15.80;84.30;;;;;;4991237;28;20786;-79
2022/04/29 12:38:45;;;;;;;10.10;5.80;;;15.80;84.30;;;;;;5012188;28;20453;-80
2022/04/29 12:41:23;;;;;;;7.73;4.70;;;15.80;84.20;;;;;;5015349;28;20844;-80
2022/04/29 12:43:52;;;;;;;12.73;5.27;;;15.80;84.30;;;;;;5016096;28;20803;-80
2022/04/29 12:46:22;;;;;;;8.90;5.30;;;15.80;84.20;;;;;;5004619;28;20427;-79
2022/04/29 12:48:52;;;;;;;9.90;5.20;;;15.90;84.60;;;;;;5008558;28;20487;-79
2022/04/29 12:51:25;;;;;;;9.07;5.10;;;15.80;83.90;;;;;;5012709;28;20439;-79
2022/04/29 12:53:54;;;;;;;8.67;5.10;;;15.80;83.80;;;;;;5013600;28;20422;-78
2022/04/29 12:56:29;;;;;;;7.30;5.03;;;15.80;83.70;;;;;;5012898;28;20940;-79
2022/04/29 12:58:58;;;;;;;8.33;4.80;;;15.90;83.70;;;;;;4994417;28;20476;-80
2022/04/29 13:01:27;;;;;;;10.13;4.70;;;15.80;83.10;;;;;;4996553;28;20448;-79
2022/04/29 13:04:06;;;;;;;9.63;4.53;;;15.90;83.10;;;;;;5016902;28;20472;-79
2022/04/29 13:06:55;;;;;;;8.73;4.70;;;15.90;83.30;;;;;;4976867;28;20482;-80
2022/04/29 13:09:25;;;;;;;8.47;4.77;;;16.00;83.50;;;;;;4975268;28;20452;-80
2022/04/29 13:11:55;;;;;;;11.00;5.40;;;16.00;83.20;;;;;;4989868;28;20945;-76
2022/04/29 13:14:47;;;;;;;9.30;4.93;;;16.10;83.40;;;;;;4969951;28;20958;-78
2022/04/29 13:17:15;;;;;;;7.97;4.80;;;16.20;83.20;;;;;;4972910;28;20543;-76
2022/04/29 13:19:44;;;;;;;7.40;4.60;;;16.20;83.10;;;;;;4981116;28;20452;-80
2022/04/29 13:22:12;;;;;;;8.97;4.40;;;16.30;82.90;;;;;;4993712;28;20439;-80
2022/04/29 13:24:42;;;;;;;12.23;5.40;;;16.30;82.60;;;;;;5010121;28;20439;-79
2022/04/29 13:27:13;;;;;;;7.57;4.60;;;16.30;82.60;;;;;;4994590;28;20452;-79
2022/04/29 13:29:44;;;;;;;7.40;4.73;;;16.30;82.40;;;;;;4994626;28;20462;-79
2022/04/29 13:32:12;;;;;;;8.20;4.90;;;16.30;82.10;;;;;;4994492;28;20527;-79
2022/04/29 13:34:40;;;;;;;9.23;5.30;;;16.20;82.20;;;;;;4996089;28;20498;-79
2022/04/29 13:37:09;;;;;;;10.27;4.80;;;16.20;82.30;;;;;;5011142;28;20419;-80
2022/04/29 13:39:37;;;;;;;8.60;4.20;;;16.20;81.90;;;;;;4996093;28;20551;-81
2022/04/29 13:42:13;;;;;;;8.00;4.07;;;16.20;81.90;;;;;;4995726;28;20422;-80
2022/04/29 13:44:43;;;;;;;8.10;4.50;;;16.20;81.80;;;;;;4998425;28;20433;-79